createdAt,value
2023-03-13T00:00:59.748Z,7.60
2023-03-13T00:03:27.565Z,7.40
2023-03-13T00:05:58.262Z,7.30
2023-03-13T00:08:28.644Z,7.00
2023-03-13T00:10:56.425Z,6.90
2023-03-13T00:13:23.878Z,6.90
2023-03-13T00:15:59.144Z,7.20
2023-03-13T00:18:26.350Z,7.50
2023-03-13T00:21:03.899Z,7.60
2023-03-13T00:23:31.165Z,7.60
2023-03-13T00:26:02.414Z,7.30
2023-03-13T00:28:32.484Z,6.80
2023-03-13T00:31:10.709Z,6.80
2023-03-13T00:33:39.528Z,6.70
2023-03-13T00:36:08.289Z,6.70
2023-03-13T00:38:36.004Z,6.40
2023-03-13T00:41:04.724Z,6.40
2023-03-13T00:43:32.231Z,6.40
2023-03-13T00:46:01.111Z,6.60
2023-03-13T00:48:28.397Z,6.80
2023-03-13T00:50:55.655Z,6.90
2023-03-13T00:53:23.303Z,6.90
2023-03-13T00:55:58.748Z,7.20
2023-03-13T00:58:27.299Z,7.50
2023-03-13T01:00:54.938Z,7.60
2023-03-13T01:03:25.549Z,7.90
2023-03-13T01:05:56.784Z,8.00
2023-03-13T01:08:26.369Z,8.20
2023-03-13T01:11:00.695Z,8.30
2023-03-13T01:13:29.040Z,8.40
2023-03-13T01:15:57.694Z,8.40
2023-03-13T01:18:24.946Z,8.40
2023-03-13T01:20:53.094Z,8.30
2023-03-13T01:23:20.364Z,8.00
2023-03-13T01:25:48.052Z,7.80
2023-03-13T01:28:15.232Z,7.90
2023-03-13T01:30:42.539Z,8.20
2023-03-13T01:33:10.264Z,8.50
2023-03-13T01:35:37.482Z,8.70
2023-03-13T01:38:04.971Z,8.70
2023-03-13T01:40:32.373Z,8.80
2023-03-13T01:43:00.418Z,8.90
2023-03-13T01:45:48.145Z,9.10
2023-03-13T01:48:15.625Z,9.10
2023-03-13T01:50:48.213Z,9.00
2023-03-13T01:53:23.703Z,9.10
2023-03-13T01:55:52.540Z,9.10
2023-03-13T01:58:20.383Z,9.00
2023-03-13T02:00:47.876Z,9.00
2023-03-13T02:03:17.205Z,8.90
2023-03-13T02:05:46.526Z,9.00
2023-03-13T02:08:20.629Z,8.90
2023-03-13T02:10:58.096Z,8.90
2023-03-13T02:13:26.197Z,8.60
2023-03-13T02:15:59.113Z,8.40
2023-03-13T02:18:26.699Z,8.20
2023-03-13T02:20:56.659Z,8.10
2023-03-13T02:23:36.738Z,8.10
2023-03-13T02:26:04.082Z,8.00
2023-03-13T02:28:35.502Z,7.90
2023-03-13T02:31:06.917Z,7.80
2023-03-13T02:33:39.895Z,7.80
2023-03-13T02:36:07.827Z,7.90
2023-03-13T02:38:39.334Z,7.90
2023-03-13T02:41:07.259Z,7.90
2023-03-13T02:43:37.938Z,8.00
2023-03-13T02:46:09.148Z,8.20
2023-03-13T02:48:44.656Z,8.20
2023-03-13T02:51:17.893Z,8.20
2023-03-13T02:53:46.124Z,8.10
2023-03-13T02:56:15.199Z,7.90
2023-03-13T02:58:49.706Z,7.80
2023-03-13T03:01:19.822Z,7.80
2023-03-13T03:03:47.713Z,7.80
2023-03-13T03:06:14.943Z,8.10
2023-03-13T03:08:43.953Z,8.30
2023-03-13T03:11:18.472Z,8.30
2023-03-13T03:13:49.839Z,8.40
2023-03-13T03:16:21.081Z,8.30
2023-03-13T03:18:48.434Z,8.20
2023-03-13T03:21:16.316Z,8.10
2023-03-13T03:23:43.552Z,8.00
2023-03-13T03:26:10.996Z,7.90
2023-03-13T03:28:39.268Z,7.90
2023-03-13T03:31:14.158Z,7.70
2023-03-13T03:33:42.456Z,7.70
2023-03-13T03:36:13.993Z,7.90
2023-03-13T03:38:42.033Z,8.10
2023-03-13T03:41:11.988Z,8.30
2023-03-13T03:43:39.623Z,8.40
2023-03-13T03:46:08.808Z,8.30
2023-03-13T03:48:36.905Z,8.50
2023-03-13T03:51:06.743Z,8.60
2023-03-13T03:53:37.509Z,8.70
2023-03-13T03:56:04.951Z,8.80
2023-03-13T03:58:32.600Z,8.80
2023-03-13T04:01:14.946Z,8.70
2023-03-13T04:03:42.356Z,8.80
2023-03-13T04:06:10.199Z,8.80
2023-03-13T04:08:37.450Z,8.80
2023-03-13T04:11:04.919Z,8.90
2023-03-13T04:13:37.015Z,8.90
2023-03-13T04:16:08.306Z,8.90
2023-03-13T04:18:36.074Z,9.00
2023-03-13T04:21:05.280Z,9.00
2023-03-13T04:23:40.051Z,9.00
2023-03-13T04:26:07.274Z,9.10
2023-03-13T04:28:34.811Z,9.10
2023-03-13T04:31:04.266Z,9.20
2023-03-13T04:33:41.888Z,9.30
2023-03-13T04:36:27.358Z,9.30
2023-03-13T04:39:10.681Z,9.40
2023-03-13T04:41:54.496Z,9.40
2023-03-13T04:44:51.000Z,9.50
2023-03-13T04:47:36.046Z,9.60
2023-03-13T04:50:11.993Z,9.60
2023-03-13T04:52:50.616Z,9.70
2023-03-13T04:55:30.739Z,9.70
2023-03-13T04:58:09.831Z,9.70
2023-03-13T05:00:39.620Z,9.70
2023-03-13T05:03:35.996Z,9.80
2023-03-13T05:06:19.737Z,9.80
2023-03-13T05:09:13.099Z,9.90
2023-03-13T05:12:00.697Z,9.90
2023-03-13T05:14:46.432Z,9.90
2023-03-13T05:17:33.903Z,10.00
2023-03-13T05:20:19.262Z,10.00
2023-03-13T05:23:06.719Z,10.10
2023-03-13T05:28:49.830Z,10.10
2023-03-13T05:31:29.179Z,10.10
2023-03-13T05:34:12.712Z,10.10
2023-03-13T05:37:01.764Z,10.10
2023-03-13T05:39:51.678Z,10.10
2023-03-13T05:42:38.969Z,9.70
2023-03-13T05:45:25.790Z,9.20
2023-03-13T05:48:16.140Z,9.00
2023-03-13T05:51:06.311Z,8.90
2023-03-13T05:53:46.102Z,8.90
2023-03-13T05:56:31.921Z,8.90
2023-03-13T05:59:11.993Z,8.90
2023-03-13T06:02:13.837Z,8.80
2023-03-13T06:04:44.545Z,8.90
2023-03-13T06:07:11.836Z,8.90
2023-03-13T06:09:41.018Z,8.80
2023-03-13T06:12:10.689Z,8.70
2023-03-13T06:14:38.181Z,8.70
2023-03-13T06:17:17.311Z,8.80
2023-03-13T06:19:44.605Z,9.00
2023-03-13T06:22:11.806Z,9.00
2023-03-13T06:24:39.181Z,9.10
2023-03-13T06:27:07.545Z,9.30
2023-03-13T06:29:34.693Z,9.40
2023-03-13T06:32:02.242Z,9.60
2023-03-13T06:34:29.529Z,9.80
2023-03-13T06:36:58.779Z,9.90
2023-03-13T06:39:26.194Z,10.00
2023-03-13T06:41:53.469Z,10.20
2023-03-13T06:44:20.993Z,10.40
2023-03-13T06:46:48.225Z,10.40
2023-03-13T06:49:15.625Z,10.60
2023-03-13T06:51:42.837Z,10.50
2023-03-13T06:54:10.096Z,10.60
2023-03-13T06:56:37.350Z,10.60
2023-03-13T06:59:04.774Z,10.70
2023-03-13T07:01:32.007Z,10.70
2023-03-13T07:03:59.274Z,10.70
2023-03-13T07:06:27.082Z,10.80
2023-03-13T07:08:54.493Z,10.70
2023-03-13T07:11:21.706Z,10.80
2023-03-13T07:13:48.903Z,10.90
2023-03-13T07:16:16.807Z,10.90
2023-03-13T07:18:46.959Z,10.80
2023-03-13T07:21:14.612Z,11.10
2023-03-13T07:23:41.880Z,11.00
2023-03-13T07:26:13.741Z,11.00
2023-03-13T07:28:41.476Z,11.10
2023-03-13T07:31:12.660Z,11.10
2023-03-13T07:33:40.404Z,11.10
2023-03-13T07:36:08.041Z,11.10
2023-03-13T07:38:35.498Z,11.30
2023-03-13T07:41:02.896Z,11.30
2023-03-13T07:43:31.548Z,11.40
2023-03-13T07:46:00.101Z,11.60
2023-03-13T07:48:45.376Z,11.70
2023-03-13T07:51:33.387Z,11.90
2023-03-13T07:54:04.278Z,11.70
2023-03-13T07:56:31.518Z,11.80
2023-03-13T07:58:58.769Z,12.00
2023-03-13T08:01:30.332Z,12.10
2023-03-13T08:04:01.206Z,12.20
2023-03-13T08:06:32.694Z,12.20
2023-03-13T08:09:01.298Z,12.20
2023-03-13T08:11:29.008Z,12.40
2023-03-13T08:13:56.828Z,12.40
2023-03-13T08:16:25.372Z,12.50
2023-03-13T08:18:54.005Z,12.60
2023-03-13T08:21:28.501Z,12.70
2023-03-13T08:23:57.779Z,12.70
2023-03-13T08:26:28.899Z,12.70
2023-03-13T08:29:00.379Z,13.00
2023-03-13T08:31:38.091Z,13.00
2023-03-13T08:34:05.413Z,13.10
2023-03-13T08:36:36.569Z,13.00
2023-03-13T08:39:11.524Z,13.10
2023-03-13T08:41:40.714Z,13.20
2023-03-13T08:44:08.878Z,13.40
2023-03-13T08:46:36.971Z,13.60
2023-03-13T08:49:05.125Z,13.70
2023-03-13T08:51:32.991Z,13.70
2023-03-13T08:54:01.430Z,13.90
2023-03-13T08:56:34.991Z,14.00
2023-03-13T08:59:03.564Z,14.00
2023-03-13T09:01:34.635Z,13.90
2023-03-13T09:04:04.485Z,13.90
2023-03-13T09:06:32.619Z,13.80
2023-03-13T09:08:59.977Z,13.90
2023-03-13T09:11:27.315Z,13.90
2023-03-13T09:13:55.348Z,13.80
2023-03-13T09:16:23.659Z,14.00
2023-03-13T09:18:51.820Z,14.10
2023-03-13T09:21:23.615Z,14.10
2023-03-13T09:23:51.158Z,14.10
2023-03-13T09:26:22.271Z,14.10
2023-03-13T09:28:50.697Z,14.40
2023-03-13T09:31:22.550Z,14.50
2023-03-13T09:33:50.658Z,14.80
2023-03-13T09:36:21.558Z,14.80
2023-03-13T09:38:50.816Z,15.00
2023-03-13T09:41:18.250Z,15.10
2023-03-13T09:43:50.354Z,15.20
2023-03-13T09:46:29.497Z,15.30
2023-03-13T09:49:01.309Z,15.40
2023-03-13T09:54:07.747Z,15.60
2023-03-13T09:56:45.309Z,15.80
2023-03-13T09:59:22.590Z,15.90
2023-03-13T10:01:50.663Z,15.70
2023-03-13T10:04:24.146Z,15.50
2023-03-13T10:06:52.235Z,15.90
2023-03-13T10:09:21.043Z,16.10
2023-03-13T10:11:54.785Z,15.90
2023-03-13T10:14:27.501Z,16.00
2023-03-13T10:16:56.808Z,16.20
2023-03-13T10:19:27.967Z,16.20
2023-03-13T10:21:55.863Z,16.20
2023-03-13T10:24:34.482Z,16.40
2023-03-13T10:27:01.824Z,16.40
2023-03-13T10:29:30.643Z,16.10
2023-03-13T10:31:59.419Z,16.00
2023-03-13T10:34:28.175Z,16.30
2023-03-13T10:36:59.801Z,16.00
2023-03-13T10:39:28.453Z,16.20
2023-03-13T10:42:09.277Z,16.20
2023-03-13T10:44:37.336Z,16.20
2023-03-13T10:47:05.274Z,16.50
2023-03-13T10:49:33.891Z,16.30
2023-03-13T10:52:02.694Z,16.30
2023-03-13T10:54:30.188Z,16.10
2023-03-13T10:57:09.405Z,16.20
2023-03-13T10:59:40.149Z,16.00
2023-03-13T11:02:17.899Z,16.00
2023-03-13T11:04:49.390Z,16.10
2023-03-13T11:07:20.239Z,16.20
2023-03-13T11:10:10.614Z,16.20
2023-03-13T11:12:44.238Z,16.50
2023-03-13T11:15:23.494Z,16.70
2023-03-13T11:17:56.200Z,16.60
2023-03-13T11:20:23.572Z,16.50
2023-03-13T11:22:50.916Z,16.60
2023-03-13T11:25:30.526Z,16.50
2023-03-13T11:28:13.534Z,16.70
2023-03-13T11:30:52.800Z,16.40
2023-03-13T11:33:26.139Z,16.30
2023-03-13T11:35:55.095Z,16.10
2023-03-13T11:38:28.114Z,16.40
2023-03-13T11:41:10.846Z,16.30
2023-03-13T11:43:42.446Z,16.30
2023-03-13T11:46:13.133Z,16.20
2023-03-13T11:48:58.795Z,16.00
2023-03-13T11:51:32.381Z,15.80
2023-03-13T11:54:00.133Z,15.50
2023-03-13T11:56:35.704Z,15.30
2023-03-13T11:59:07.466Z,15.30
2023-03-13T12:01:37.292Z,15.30
2023-03-13T12:04:18.510Z,15.50
2023-03-13T12:06:51.826Z,15.50
2023-03-13T12:09:30.668Z,15.70
2023-03-13T12:12:05.542Z,15.80
2023-03-13T12:14:39.027Z,15.90
2023-03-13T12:17:09.660Z,16.20
2023-03-13T12:19:47.690Z,16.20
2023-03-13T12:22:21.177Z,16.20
2023-03-13T12:24:52.168Z,16.40
2023-03-13T12:27:34.439Z,16.40
2023-03-13T12:30:05.381Z,16.50
2023-03-13T12:32:40.706Z,16.90
2023-03-13T12:35:08.441Z,16.90
2023-03-13T12:37:38.736Z,17.00
2023-03-13T12:40:18.139Z,17.10
2023-03-13T12:42:49.839Z,16.90
2023-03-13T12:45:18.747Z,16.90
2023-03-13T12:47:49.087Z,16.90
2023-03-13T12:50:24.030Z,17.20
2023-03-13T12:52:57.519Z,17.10
2023-03-13T12:55:33.976Z,17.40
2023-03-13T12:58:01.352Z,17.30
2023-03-13T13:00:30.299Z,17.50
2023-03-13T13:03:16.481Z,17.20
2023-03-13T13:06:02.212Z,17.40
2023-03-13T13:08:32.896Z,17.70
2023-03-13T13:11:18.848Z,17.80
2023-03-13T13:13:46.113Z,17.70
2023-03-13T13:16:17.885Z,17.50
2023-03-13T13:18:45.227Z,17.70
2023-03-13T13:21:15.685Z,17.50
2023-03-13T13:23:47.001Z,17.40
2023-03-13T13:26:40.645Z,17.50
2023-03-13T13:29:13.659Z,17.30
2023-03-13T13:31:56.952Z,17.20
2023-03-13T13:34:36.686Z,17.10
2023-03-13T13:37:23.952Z,16.60
2023-03-13T13:39:52.787Z,16.70
2023-03-13T13:42:32.508Z,16.70
2023-03-13T13:44:59.722Z,16.70
2023-03-13T13:47:28.336Z,16.60
2023-03-13T13:49:56.628Z,16.70
2023-03-13T13:52:37.854Z,16.70
2023-03-13T13:55:31.569Z,16.80
2023-03-13T13:58:13.009Z,16.80
2023-03-13T14:00:45.760Z,16.90
2023-03-13T14:03:21.061Z,17.10
2023-03-13T14:05:50.248Z,17.00
2023-03-13T14:08:20.241Z,16.90
2023-03-13T14:11:16.607Z,16.90
2023-03-13T14:13:44.023Z,16.90
2023-03-13T14:16:37.933Z,16.90
2023-03-13T14:19:05.411Z,16.90
2023-03-13T14:21:33.161Z,16.80
2023-03-13T14:24:00.426Z,16.70
2023-03-13T14:26:29.674Z,16.80
2023-03-13T14:29:02.867Z,16.70
2023-03-13T14:31:34.727Z,16.70
2023-03-13T14:34:05.958Z,16.60
2023-03-13T14:36:52.127Z,16.70
2023-03-13T14:39:31.485Z,16.60
2023-03-13T14:42:02.387Z,16.50
2023-03-13T14:44:31.074Z,16.60
2023-03-13T14:46:59.468Z,16.80
2023-03-13T14:49:31.679Z,16.80
2023-03-13T14:52:06.514Z,16.70
2023-03-13T14:54:35.224Z,16.70
2023-03-13T14:57:12.924Z,16.70
2023-03-13T14:59:40.217Z,16.80
2023-03-13T15:02:22.602Z,16.70
2023-03-13T15:04:50.185Z,16.50
2023-03-13T15:07:17.952Z,16.50
2023-03-13T15:09:46.287Z,16.70
2023-03-13T15:12:14.751Z,16.70
2023-03-13T15:14:45.245Z,16.70
2023-03-13T15:17:23.472Z,16.80
2023-03-13T15:19:52.100Z,16.60
2023-03-13T15:22:22.001Z,16.40
2023-03-13T15:25:04.891Z,16.30
2023-03-13T15:27:33.210Z,16.30
2023-03-13T15:30:00.487Z,16.40
2023-03-13T15:32:29.529Z,16.30
2023-03-13T15:34:58.544Z,16.30
2023-03-13T15:37:26.477Z,16.20
2023-03-13T15:39:54.038Z,16.30
2023-03-13T15:42:22.036Z,16.40
2023-03-13T15:44:49.338Z,16.40
2023-03-13T15:47:18.964Z,16.50
2023-03-13T15:49:46.224Z,16.70
2023-03-13T15:52:17.600Z,16.60
2023-03-13T15:54:45.886Z,16.50
2023-03-13T15:57:15.496Z,16.30
2023-03-13T15:59:44.138Z,16.30
2023-03-13T16:02:16.217Z,16.20
2023-03-13T16:04:43.898Z,16.20
2023-03-13T16:07:11.724Z,16.10
2023-03-13T16:09:39.658Z,16.20
2023-03-13T16:12:07.653Z,16.00
2023-03-13T16:14:35.337Z,15.90
2023-03-13T16:17:03.225Z,16.00
2023-03-13T16:19:30.901Z,15.90
2023-03-13T16:21:58.149Z,15.80
2023-03-13T16:24:25.708Z,15.80
2023-03-13T16:26:53.008Z,15.80
2023-03-13T16:29:20.248Z,15.70
2023-03-13T16:31:47.489Z,15.60
2023-03-13T16:34:14.698Z,15.50
2023-03-13T16:36:41.904Z,15.40
2023-03-13T16:39:13.330Z,15.40
2023-03-13T16:41:40.607Z,15.30
2023-03-13T16:44:07.914Z,15.30
2023-03-13T16:46:36.746Z,15.20
2023-03-13T16:49:04.581Z,15.10
2023-03-13T16:51:32.140Z,15.00
2023-03-13T16:54:00.534Z,14.90
2023-03-13T16:56:27.820Z,14.90
2023-03-13T16:58:56.646Z,14.80
2023-03-13T17:01:26.106Z,14.70
2023-03-13T17:03:53.552Z,14.60
2023-03-13T17:06:23.856Z,14.50
2023-03-13T17:08:51.325Z,14.40
2023-03-13T17:11:19.546Z,14.40
2023-03-13T17:13:48.100Z,14.50
2023-03-13T17:16:15.399Z,14.60
2023-03-13T17:18:44.169Z,14.50
2023-03-13T17:21:12.941Z,14.60
2023-03-13T17:23:40.436Z,14.60
2023-03-13T17:26:27.100Z,14.70
2023-03-13T17:28:55.702Z,14.80
2023-03-13T17:31:24.006Z,14.90
2023-03-13T17:33:51.575Z,14.80
2023-03-13T17:36:20.827Z,14.90
2023-03-13T17:38:49.381Z,14.90
2023-03-13T17:41:18.236Z,14.90
2023-03-13T17:43:45.675Z,15.00
2023-03-13T17:46:14.707Z,15.00
2023-03-13T17:48:42.046Z,15.00
2023-03-13T17:51:29.489Z,15.00
2023-03-13T17:53:58.029Z,15.10
2023-03-13T17:56:26.964Z,15.10
2023-03-13T17:58:57.733Z,15.10
2023-03-13T18:01:26.441Z,15.10
2023-03-13T18:03:55.374Z,15.10
2023-03-13T18:06:26.906Z,15.10
2023-03-13T18:08:55.498Z,15.10
2023-03-13T18:11:23.742Z,15.10
2023-03-13T18:13:51.524Z,15.10
2023-03-13T18:16:25.084Z,15.10
2023-03-13T18:18:52.966Z,15.10
2023-03-13T18:21:23.982Z,15.10
2023-03-13T18:23:53.496Z,15.20
2023-03-13T18:26:32.008Z,15.20
2023-03-13T18:29:02.773Z,15.10
2023-03-13T18:31:31.507Z,15.00
2023-03-13T18:33:59.505Z,15.00
2023-03-13T18:36:27.706Z,15.00
2023-03-13T18:38:54.984Z,15.00
2023-03-13T18:41:22.359Z,15.00
2023-03-13T18:43:49.659Z,15.00
2023-03-13T18:46:27.964Z,14.90
2023-03-13T18:48:55.557Z,14.70
2023-03-13T18:51:26.448Z,14.60
2023-03-13T18:53:54.421Z,14.60
2023-03-13T18:56:25.987Z,14.50
2023-03-13T18:58:54.358Z,14.40
2023-03-13T19:01:23.010Z,14.30
2023-03-13T19:03:50.550Z,14.20
2023-03-13T19:06:19.832Z,14.20
2023-03-13T19:08:47.687Z,14.10
2023-03-13T19:11:15.854Z,14.00
2023-03-13T19:13:43.175Z,14.00
2023-03-13T19:16:19.527Z,13.90
2023-03-13T19:18:47.115Z,14.00
2023-03-13T19:21:25.032Z,13.90
2023-03-13T19:23:52.879Z,13.90
2023-03-13T19:26:23.236Z,13.80
2023-03-13T19:28:50.505Z,13.80
2023-03-13T19:31:18.781Z,13.70
2023-03-13T19:33:47.543Z,13.60
2023-03-13T19:36:15.937Z,13.50
2023-03-13T19:38:43.472Z,13.60
2023-03-13T19:41:11.511Z,13.50
2023-03-13T19:43:39.357Z,13.50
2023-03-13T19:46:17.375Z,13.40
2023-03-13T19:48:44.640Z,13.50
2023-03-13T19:51:11.847Z,13.50
2023-03-13T19:53:39.828Z,13.50
2023-03-13T19:56:15.866Z,13.50
2023-03-13T19:58:43.838Z,13.50
2023-03-13T20:01:17.122Z,13.50
2023-03-13T20:03:45.823Z,13.40
2023-03-13T20:06:17.994Z,13.50
2023-03-13T20:08:45.505Z,13.40
2023-03-13T20:11:13.289Z,13.40
2023-03-13T20:13:40.938Z,13.40
2023-03-13T20:16:10.885Z,13.40
2023-03-13T20:18:38.636Z,13.30
2023-03-13T20:21:06.272Z,13.40
2023-03-13T20:23:33.527Z,13.40
2023-03-13T20:26:10.862Z,13.40
2023-03-13T20:28:38.817Z,13.30
2023-03-13T20:31:06.524Z,13.30
2023-03-13T20:33:34.565Z,13.30
2023-03-13T20:36:03.459Z,13.30
2023-03-13T20:38:32.535Z,13.30
2023-03-13T20:40:59.755Z,13.30
2023-03-13T20:43:27.074Z,13.20
2023-03-13T20:45:54.925Z,13.30
2023-03-13T20:48:22.542Z,13.20
2023-03-13T20:50:50.378Z,13.30
2023-03-13T20:53:18.223Z,13.20
2023-03-13T20:55:45.884Z,13.30
2023-03-13T20:58:13.172Z,13.40
2023-03-13T21:00:40.714Z,13.20
2023-03-13T21:03:08.300Z,13.20
2023-03-13T21:05:39.652Z,13.20
2023-03-13T21:08:07.211Z,13.20
2023-03-13T21:10:40.791Z,13.20
2023-03-13T21:13:08.634Z,13.30
2023-03-13T21:15:36.434Z,13.20
2023-03-13T21:18:04.294Z,13.30
2023-03-13T21:20:31.531Z,13.30
2023-03-13T21:22:58.841Z,13.20
2023-03-13T21:25:26.155Z,13.20
2023-03-13T21:27:53.511Z,13.20
2023-03-13T21:30:21.468Z,13.10
2023-03-13T21:32:49.262Z,13.10
2023-03-13T21:35:17.087Z,13.10
2023-03-13T21:37:44.340Z,13.10
2023-03-13T21:40:11.843Z,13.20
2023-03-13T21:42:39.267Z,13.20
2023-03-13T21:45:06.989Z,13.00
2023-03-13T21:47:37.093Z,13.00
2023-03-13T21:50:05.974Z,13.00
2023-03-13T21:52:38.332Z,13.00
2023-03-13T21:55:09.944Z,13.00
2023-03-13T21:57:37.261Z,13.00
2023-03-13T22:00:08.032Z,13.00
2023-03-13T22:02:36.983Z,13.00
2023-03-13T22:05:04.817Z,13.00
2023-03-13T22:07:32.146Z,13.00
2023-03-13T22:09:59.555Z,12.90
2023-03-13T22:12:27.051Z,13.00
2023-03-13T22:14:56.688Z,12.90
2023-03-13T22:17:25.072Z,12.80
2023-03-13T22:19:52.332Z,12.90
2023-03-13T22:22:21.923Z,12.90
2023-03-13T22:24:49.278Z,12.90
2023-03-13T22:27:17.653Z,12.90
2023-03-13T22:29:44.981Z,12.90
2023-03-13T22:32:12.245Z,12.80
2023-03-13T22:34:44.947Z,12.60
2023-03-13T22:37:12.368Z,12.60
2023-03-13T22:39:39.676Z,12.60
2023-03-13T22:42:07.294Z,12.60
2023-03-13T22:44:34.523Z,12.50
2023-03-13T22:47:01.779Z,12.50
2023-03-13T22:49:29.168Z,12.50
2023-03-13T22:51:56.487Z,12.50
2023-03-13T22:54:23.763Z,12.40
2023-03-13T22:56:51.001Z,12.40
2023-03-13T22:59:18.238Z,12.30
2023-03-13T23:01:45.526Z,12.40
2023-03-13T23:04:12.759Z,12.30
2023-03-13T23:06:40.041Z,12.30
2023-03-13T23:09:07.526Z,12.30
2023-03-13T23:11:34.965Z,12.30
2023-03-13T23:14:02.289Z,12.20
2023-03-13T23:16:29.893Z,12.20
2023-03-13T23:18:57.196Z,12.30
2023-03-13T23:21:24.480Z,12.20
2023-03-13T23:23:53.604Z,12.20
2023-03-13T23:26:21.050Z,12.20
2023-03-13T23:28:48.263Z,12.20
2023-03-13T23:31:16.934Z,12.20
2023-03-13T23:33:44.514Z,12.10
2023-03-13T23:36:13.354Z,12.20
2023-03-13T23:38:40.725Z,12.20
2023-03-13T23:41:08.932Z,12.20
2023-03-13T23:43:36.286Z,12.20
2023-03-13T23:46:04.116Z,12.10
2023-03-13T23:48:31.641Z,12.10
2023-03-13T23:50:58.998Z,12.00
2023-03-13T23:53:26.292Z,12.00
2023-03-13T23:55:57.490Z,12.00
2023-03-13T23:58:24.918Z,12.00
